createdAt,value
2022-12-28T00:01:41.955Z,4.80
2022-12-28T00:04:08.706Z,4.60
2022-12-28T00:06:35.406Z,4.10
2022-12-28T00:09:02.029Z,4.50
2022-12-28T00:11:30.960Z,4.80
2022-12-28T00:13:57.936Z,5.00
2022-12-28T00:16:24.701Z,4.80
2022-12-28T00:18:51.417Z,4.80
2022-12-28T00:21:18.047Z,4.80
2022-12-28T00:23:44.676Z,4.90
2022-12-28T00:26:11.371Z,4.80
2022-12-28T00:28:38.098Z,4.80
2022-12-28T00:31:04.775Z,4.80
2022-12-28T00:33:31.479Z,4.90
2022-12-28T00:35:58.165Z,4.90
2022-12-28T00:38:24.854Z,4.90
2022-12-28T00:40:51.531Z,4.10
2022-12-28T00:43:18.183Z,3.40
2022-12-28T00:45:44.968Z,3.80
2022-12-28T00:48:11.629Z,4.20
2022-12-28T00:50:38.275Z,4.50
2022-12-28T00:53:04.941Z,4.50
2022-12-28T00:55:31.634Z,4.70
2022-12-28T00:57:58.310Z,4.70
2022-12-28T01:00:24.927Z,4.70
2022-12-28T01:02:51.646Z,4.80
2022-12-28T01:05:19.816Z,4.60
2022-12-28T01:07:46.551Z,4.80
2022-12-28T01:10:13.245Z,4.60
2022-12-28T01:12:39.950Z,4.80
2022-12-28T01:15:06.599Z,4.90
2022-12-28T01:17:33.285Z,4.90
2022-12-28T01:19:59.971Z,4.90
2022-12-28T01:22:26.694Z,5.00
2022-12-28T01:24:53.440Z,4.80
2022-12-28T01:27:20.142Z,4.70
2022-12-28T01:29:46.804Z,4.70
2022-12-28T01:32:13.538Z,4.90
2022-12-28T01:34:40.238Z,4.90
2022-12-28T01:37:06.928Z,5.00
2022-12-28T01:39:33.634Z,5.10
2022-12-28T01:42:00.290Z,5.10
2022-12-28T01:44:27.011Z,5.00
2022-12-28T01:46:53.666Z,4.80
2022-12-28T01:49:20.348Z,4.80
2022-12-28T01:51:47.053Z,4.70
2022-12-28T01:54:13.716Z,4.80
2022-12-28T01:56:40.389Z,4.70
2022-12-28T01:59:07.062Z,4.30
2022-12-28T02:01:33.788Z,4.20
2022-12-28T02:04:00.735Z,3.90
2022-12-28T02:06:27.439Z,3.70
2022-12-28T02:08:54.109Z,3.90
2022-12-28T02:11:20.765Z,4.00
2022-12-28T02:13:47.406Z,4.10
2022-12-28T02:16:14.134Z,4.20
2022-12-28T02:18:40.890Z,4.10
2022-12-28T02:21:08.345Z,4.10
2022-12-28T02:23:34.993Z,4.10
2022-12-28T02:26:01.637Z,4.00
2022-12-28T02:28:28.265Z,4.00
2022-12-28T02:30:55.066Z,3.60
2022-12-28T02:33:21.790Z,3.50
2022-12-28T02:35:48.496Z,3.40
2022-12-28T02:38:15.193Z,3.70
2022-12-28T02:40:41.827Z,3.40
2022-12-28T02:43:08.522Z,2.70
2022-12-28T02:45:35.204Z,3.00
2022-12-28T02:48:01.839Z,3.40
2022-12-28T02:50:28.566Z,3.60
2022-12-28T02:52:55.209Z,3.50
2022-12-28T02:55:21.868Z,3.10
2022-12-28T02:57:48.570Z,2.90
2022-12-28T03:00:15.293Z,2.60
2022-12-28T03:02:42.066Z,2.30
2022-12-28T03:05:08.788Z,2.60
2022-12-28T03:07:35.399Z,2.90
2022-12-28T03:10:02.116Z,3.10
2022-12-28T03:12:28.800Z,3.20
2022-12-28T03:14:55.479Z,3.10
2022-12-28T03:17:22.141Z,3.10
2022-12-28T03:19:48.785Z,3.10
2022-12-28T03:22:15.444Z,3.30
2022-12-28T03:24:42.097Z,3.10
2022-12-28T03:27:09.372Z,3.10
2022-12-28T03:29:36.157Z,3.00
2022-12-28T03:32:02.995Z,3.10
2022-12-28T03:34:29.617Z,2.90
2022-12-28T03:36:56.249Z,3.00
2022-12-28T03:39:22.965Z,2.90
2022-12-28T03:41:49.617Z,2.90
2022-12-28T03:44:16.262Z,2.80
2022-12-28T03:46:42.981Z,2.30
2022-12-28T03:49:09.700Z,2.50
2022-12-28T03:51:36.376Z,2.80
2022-12-28T03:54:03.022Z,2.70
2022-12-28T03:56:29.721Z,2.70
2022-12-28T03:58:56.367Z,2.80
2022-12-28T04:01:23.187Z,2.90
2022-12-28T04:03:49.957Z,2.80
2022-12-28T04:06:16.640Z,2.70
2022-12-28T04:08:43.378Z,2.90
2022-12-28T04:11:09.993Z,2.80
2022-12-28T04:13:36.670Z,2.90
2022-12-28T04:16:03.345Z,2.90
2022-12-28T04:18:30.084Z,2.90
2022-12-28T04:20:56.818Z,2.90
2022-12-28T04:23:23.445Z,2.60
2022-12-28T04:25:50.146Z,2.70
2022-12-28T04:28:16.853Z,2.40
2022-12-28T04:30:43.522Z,2.60
2022-12-28T04:33:10.144Z,2.50
2022-12-28T04:35:36.805Z,2.50
2022-12-28T04:38:03.460Z,2.70
2022-12-28T04:40:30.181Z,2.70
2022-12-28T04:42:56.871Z,2.60
2022-12-28T04:45:23.504Z,2.00
2022-12-28T04:47:50.311Z,1.70
2022-12-28T04:50:17.171Z,1.90
2022-12-28T04:52:44.007Z,1.80
2022-12-28T04:55:32.740Z,1.60
2022-12-28T04:57:57.298Z,2.00
2022-12-28T05:00:24.043Z,2.00
2022-12-28T05:02:50.780Z,2.10
2022-12-28T05:05:17.426Z,2.10
2022-12-28T05:07:44.651Z,2.40
2022-12-28T05:10:11.328Z,2.50
2022-12-28T05:12:37.972Z,2.30
2022-12-28T05:15:04.610Z,2.50
2022-12-28T05:17:31.264Z,2.60
2022-12-28T05:19:57.969Z,2.60
2022-12-28T05:22:24.619Z,2.70
2022-12-28T05:24:51.314Z,2.70
2022-12-28T05:27:17.971Z,2.60
2022-12-28T05:29:44.621Z,1.70
2022-12-28T05:32:11.327Z,1.70
2022-12-28T05:34:40.089Z,1.50
2022-12-28T05:37:06.775Z,1.70
2022-12-28T05:39:33.632Z,1.80
2022-12-28T05:42:00.324Z,1.70
2022-12-28T05:44:27.006Z,2.00
2022-12-28T05:46:53.703Z,2.30
2022-12-28T05:49:20.507Z,2.50
2022-12-28T05:51:47.389Z,2.50
2022-12-28T05:54:14.001Z,2.10
2022-12-28T05:56:40.683Z,1.80
2022-12-28T05:59:07.296Z,2.00
2022-12-28T06:01:34.015Z,2.20
2022-12-28T06:04:00.743Z,2.30
2022-12-28T06:06:27.377Z,2.30
2022-12-28T06:08:54.200Z,2.40
2022-12-28T06:11:20.876Z,2.50
2022-12-28T06:13:47.544Z,2.60
2022-12-28T06:16:14.206Z,2.40
2022-12-28T06:18:40.932Z,2.30
2022-12-28T06:21:07.621Z,2.30
2022-12-28T06:23:34.320Z,2.50
2022-12-28T06:26:00.974Z,2.30
2022-12-28T06:28:27.653Z,2.20
2022-12-28T06:30:54.333Z,2.20
2022-12-28T06:33:21.037Z,2.20
2022-12-28T06:35:47.751Z,2.20
2022-12-28T06:38:14.406Z,2.30
2022-12-28T06:41:11.673Z,2.30
2022-12-28T06:43:27.658Z,2.40
2022-12-28T06:45:54.331Z,2.30
2022-12-28T06:48:21.076Z,1.80
2022-12-28T06:50:47.705Z,1.90
2022-12-28T06:53:14.386Z,2.10
2022-12-28T06:55:40.999Z,1.70
2022-12-28T06:58:07.660Z,1.90
2022-12-28T07:00:34.413Z,2.10
2022-12-28T07:03:01.135Z,1.80
2022-12-28T07:05:27.895Z,1.50
2022-12-28T07:07:54.760Z,1.80
2022-12-28T07:10:21.460Z,2.00
2022-12-28T07:12:48.092Z,2.30
2022-12-28T07:15:14.789Z,2.40
2022-12-28T07:17:41.412Z,2.50
2022-12-28T07:20:08.054Z,1.90
2022-12-28T07:22:34.723Z,1.70
2022-12-28T07:25:01.426Z,2.10
2022-12-28T07:27:28.108Z,2.10
2022-12-28T07:29:54.736Z,2.20
2022-12-28T07:32:21.375Z,2.50
2022-12-28T07:34:48.075Z,2.60
2022-12-28T07:37:14.744Z,2.60
2022-12-28T07:39:41.463Z,2.40
2022-12-28T07:42:08.111Z,2.50
2022-12-28T07:44:38.206Z,2.60
2022-12-28T07:47:05.052Z,2.70
2022-12-28T07:49:31.741Z,2.00
2022-12-28T07:51:58.479Z,2.20
2022-12-28T07:54:25.205Z,2.50
2022-12-28T07:56:51.977Z,2.70
2022-12-28T07:59:18.716Z,2.90
2022-12-28T08:01:45.442Z,2.90
2022-12-28T08:04:12.208Z,2.80
2022-12-28T08:06:38.904Z,2.90
2022-12-28T08:09:05.625Z,2.80
2022-12-28T08:11:32.356Z,2.70
2022-12-28T08:13:59.040Z,3.00
2022-12-28T08:16:25.733Z,2.80
2022-12-28T08:18:52.403Z,2.90
2022-12-28T08:21:19.036Z,3.20
2022-12-28T08:23:45.683Z,3.40
2022-12-28T08:26:12.404Z,3.40
2022-12-28T08:28:39.062Z,3.60
2022-12-28T08:31:05.825Z,3.80
2022-12-28T08:33:32.472Z,3.60
2022-12-28T08:35:59.148Z,3.40
2022-12-28T08:38:25.780Z,3.40
2022-12-28T08:40:57.229Z,3.30
2022-12-28T08:43:24.272Z,3.40
2022-12-28T08:45:51.007Z,3.60
2022-12-28T08:48:17.724Z,3.80
2022-12-28T08:50:44.446Z,4.10
2022-12-28T08:53:11.086Z,4.30
2022-12-28T08:55:37.758Z,4.30
2022-12-28T08:58:04.384Z,4.30
2022-12-28T09:00:31.058Z,4.50
2022-12-28T09:02:57.842Z,4.80
2022-12-28T09:05:24.584Z,5.00
2022-12-28T09:07:56.167Z,5.00
2022-12-28T09:10:25.960Z,4.80
2022-12-28T09:12:52.621Z,4.30
2022-12-28T09:15:19.284Z,4.50
2022-12-28T09:17:45.969Z,5.00
2022-12-28T09:20:12.651Z,5.20
2022-12-28T09:22:39.428Z,5.20
2022-12-28T09:25:06.167Z,5.40
2022-12-28T09:27:32.902Z,5.30
2022-12-28T09:29:59.584Z,5.50
2022-12-28T09:32:26.999Z,5.80
2022-12-28T09:34:53.644Z,5.90
2022-12-28T09:37:20.325Z,6.00
2022-12-28T09:39:47.068Z,6.00
2022-12-28T09:42:13.757Z,6.00
2022-12-28T09:44:40.446Z,6.10
2022-12-28T09:47:07.167Z,6.10
2022-12-28T09:49:33.817Z,6.40
2022-12-28T09:52:00.523Z,6.40
2022-12-28T09:54:27.302Z,6.70
2022-12-28T09:56:53.953Z,6.60
2022-12-28T09:59:20.735Z,6.90
2022-12-28T10:01:47.442Z,6.90
2022-12-28T10:04:14.161Z,7.10
2022-12-28T10:06:40.847Z,7.40
2022-12-28T10:09:07.557Z,7.30
2022-12-28T10:11:36.202Z,7.30
2022-12-28T10:14:02.888Z,7.60
2022-12-28T10:16:29.632Z,7.80
2022-12-28T10:18:56.302Z,7.80
2022-12-28T10:21:28.426Z,7.60
2022-12-28T10:26:45.485Z,8.10
2022-12-28T10:29:12.180Z,8.40
2022-12-28T10:31:38.880Z,8.50
2022-12-28T10:34:05.577Z,8.50
2022-12-28T10:36:32.322Z,8.40
2022-12-28T10:38:58.970Z,8.60
2022-12-28T10:41:25.630Z,8.40
2022-12-28T10:44:21.615Z,8.00
2022-12-28T10:46:39.059Z,8.00
2022-12-28T10:49:07.735Z,8.30
2022-12-28T10:51:37.706Z,8.00
2022-12-28T10:54:04.374Z,8.10
2022-12-28T10:56:31.148Z,8.40
2022-12-28T10:58:57.937Z,8.70
2022-12-28T11:01:24.630Z,8.80
2022-12-28T11:03:51.456Z,9.00
2022-12-28T11:06:22.768Z,9.10
2022-12-28T11:08:52.851Z,9.30
2022-12-28T11:11:19.555Z,9.20
2022-12-28T11:13:46.225Z,9.20
2022-12-28T11:16:12.963Z,9.00
2022-12-28T11:18:39.661Z,8.60
2022-12-28T11:21:06.392Z,8.80
2022-12-28T11:23:33.060Z,8.80
2022-12-28T11:25:59.788Z,9.00
2022-12-28T11:28:26.500Z,9.30
2022-12-28T11:30:53.185Z,9.50
2022-12-28T11:33:20.030Z,9.50
2022-12-28T11:35:46.708Z,9.50
2022-12-28T11:38:13.424Z,9.40
2022-12-28T11:40:40.130Z,9.40
2022-12-28T11:43:06.778Z,9.80
2022-12-28T11:45:33.565Z,9.90
2022-12-28T11:48:00.299Z,9.90
2022-12-28T11:50:27.116Z,10.00
2022-12-28T11:52:53.747Z,10.30
2022-12-28T11:55:20.401Z,10.50
2022-12-28T11:57:47.182Z,10.40
2022-12-28T12:00:18.508Z,9.90
2022-12-28T12:02:48.806Z,9.80
2022-12-28T12:05:15.546Z,10.20
2022-12-28T12:07:42.238Z,10.50
2022-12-28T12:10:08.966Z,10.40
2022-12-28T12:12:35.717Z,9.80
2022-12-28T12:15:02.445Z,10.20
2022-12-28T12:17:29.176Z,10.40
2022-12-28T12:19:55.873Z,10.50
2022-12-28T12:22:22.534Z,10.80
2022-12-28T12:24:49.227Z,10.60
2022-12-28T12:27:16.032Z,10.40
2022-12-28T12:29:42.728Z,10.80
2022-12-28T12:32:09.381Z,10.90
2022-12-28T12:34:36.070Z,11.00
2022-12-28T12:37:02.735Z,10.90
2022-12-28T12:39:29.436Z,10.90
2022-12-28T12:41:56.122Z,10.70
2022-12-28T12:44:22.850Z,10.60
2022-12-28T12:46:49.474Z,10.70
2022-12-28T12:49:16.087Z,10.20
2022-12-28T12:51:42.837Z,10.20
2022-12-28T12:54:09.463Z,10.60
2022-12-28T12:56:36.117Z,10.30
2022-12-28T12:59:02.760Z,10.20
2022-12-28T13:01:29.491Z,9.80
2022-12-28T13:03:56.154Z,10.10
2022-12-28T13:06:22.827Z,10.50
2022-12-28T13:08:49.548Z,10.70
2022-12-28T13:11:16.221Z,10.90
2022-12-28T13:13:42.856Z,10.60
2022-12-28T13:16:09.637Z,10.30
2022-12-28T13:18:45.235Z,10.50
2022-12-28T13:21:13.086Z,10.80
2022-12-28T13:23:39.860Z,11.00
2022-12-28T13:26:06.546Z,10.70
2022-12-28T13:28:33.290Z,10.70
2022-12-28T13:31:00.007Z,11.10
2022-12-28T13:33:26.716Z,11.30
2022-12-28T13:35:53.368Z,11.20
2022-12-28T13:38:20.282Z,11.20
2022-12-28T13:40:46.988Z,11.10
2022-12-28T13:43:13.665Z,10.70
2022-12-28T13:45:40.304Z,10.90
2022-12-28T13:48:07.009Z,10.70
2022-12-28T13:50:33.653Z,11.00
2022-12-28T13:53:00.325Z,10.70
2022-12-28T13:55:26.973Z,10.90
2022-12-28T13:57:59.152Z,10.80
2022-12-28T14:00:26.255Z,11.00
2022-12-28T14:02:53.002Z,11.10
2022-12-28T14:05:19.693Z,11.00
2022-12-28T14:07:46.389Z,10.80
2022-12-28T14:10:13.063Z,10.10
2022-12-28T14:12:39.727Z,9.90
2022-12-28T14:15:06.420Z,10.10
2022-12-28T14:17:34.451Z,10.30
2022-12-28T14:20:01.337Z,10.30
2022-12-28T14:22:28.280Z,10.50
2022-12-28T14:24:54.911Z,10.50
2022-12-28T14:27:21.627Z,10.50
2022-12-28T14:29:48.281Z,10.50
2022-12-28T14:32:14.937Z,10.20
2022-12-28T14:34:41.578Z,10.20
2022-12-28T14:37:08.277Z,10.20
2022-12-28T14:39:35.011Z,10.30
2022-12-28T14:42:01.707Z,10.10
2022-12-28T14:44:28.348Z,10.00
2022-12-28T14:46:55.073Z,9.90
2022-12-28T14:49:21.823Z,9.90
2022-12-28T14:51:48.476Z,9.80
2022-12-28T14:54:16.199Z,9.70
2022-12-28T14:56:42.944Z,9.40
2022-12-28T14:59:09.591Z,8.90
2022-12-28T15:01:36.370Z,8.80
2022-12-28T15:04:03.095Z,8.00
2022-12-28T15:06:29.820Z,8.10
2022-12-28T15:08:56.541Z,8.00
2022-12-28T15:11:23.247Z,8.20
2022-12-28T15:13:49.885Z,8.20
2022-12-28T15:16:17.829Z,7.40
2022-12-28T15:18:44.662Z,7.30
2022-12-28T15:21:11.365Z,7.60
2022-12-28T15:23:37.988Z,7.80
2022-12-28T15:26:04.969Z,8.00
2022-12-28T15:28:31.615Z,8.00
2022-12-28T15:30:58.323Z,7.90
2022-12-28T15:33:25.030Z,7.70
2022-12-28T15:35:51.661Z,7.60
2022-12-28T15:38:18.354Z,7.50
2022-12-28T15:40:44.994Z,7.30
2022-12-28T15:43:11.639Z,7.10
2022-12-28T15:45:38.276Z,7.20
2022-12-28T15:48:04.969Z,7.30
2022-12-28T15:50:31.647Z,7.30
2022-12-28T15:52:58.321Z,7.10
2022-12-28T15:55:25.000Z,6.80
2022-12-28T15:57:51.636Z,6.70
2022-12-28T16:00:18.308Z,6.30
2022-12-28T16:02:45.087Z,6.50
2022-12-28T16:05:11.878Z,6.40
2022-12-28T16:07:38.595Z,6.20
2022-12-28T16:10:05.266Z,6.30
2022-12-28T16:12:31.974Z,6.30
2022-12-28T16:14:58.635Z,5.50
2022-12-28T16:17:25.267Z,5.60
2022-12-28T16:19:51.942Z,5.80
2022-12-28T16:22:18.600Z,5.80
2022-12-28T16:24:45.296Z,5.90
2022-12-28T16:27:11.934Z,5.90
2022-12-28T16:29:38.672Z,5.80
2022-12-28T16:32:05.422Z,5.80
2022-12-28T16:34:32.152Z,5.50
2022-12-28T16:36:58.788Z,5.70
2022-12-28T16:39:25.514Z,5.60
2022-12-28T16:41:52.147Z,5.80
2022-12-28T16:44:18.850Z,5.90
2022-12-28T16:46:45.544Z,5.10
2022-12-28T16:49:12.217Z,5.20
2022-12-28T16:51:38.886Z,5.10
2022-12-28T16:54:05.549Z,4.70
2022-12-28T16:56:32.281Z,4.70
2022-12-28T16:58:58.964Z,5.10
2022-12-28T17:01:25.804Z,5.30
2022-12-28T17:03:52.598Z,5.50
2022-12-28T17:06:19.257Z,5.70
2022-12-28T17:08:45.898Z,5.60
2022-12-28T17:11:12.613Z,4.90
2022-12-28T17:13:39.290Z,4.60
2022-12-28T17:16:06.059Z,4.90
2022-12-28T17:18:33.193Z,5.10
2022-12-28T17:21:04.883Z,5.20
2022-12-28T17:23:33.286Z,5.20
2022-12-28T17:25:59.914Z,5.00
2022-12-28T17:28:26.603Z,5.00
2022-12-28T17:30:53.269Z,5.00
2022-12-28T17:33:19.919Z,5.00
2022-12-28T17:35:46.608Z,5.00
2022-12-28T17:38:13.280Z,5.10
2022-12-28T17:40:39.954Z,5.10
2022-12-28T17:43:06.604Z,5.10
2022-12-28T17:45:33.385Z,5.00
2022-12-28T17:48:00.156Z,4.60
2022-12-28T17:50:26.840Z,4.70
2022-12-28T17:52:53.540Z,4.60
2022-12-28T17:55:20.260Z,4.70
2022-12-28T17:57:46.987Z,4.70
2022-12-28T18:00:13.613Z,4.20
2022-12-28T18:02:40.485Z,4.50
2022-12-28T18:05:07.251Z,4.60
2022-12-28T18:07:33.928Z,4.80
2022-12-28T18:10:00.651Z,4.40
2022-12-28T18:12:27.682Z,4.60
2022-12-28T18:14:54.370Z,4.50
2022-12-28T18:17:21.042Z,4.40
2022-12-28T18:19:47.736Z,4.50
2022-12-28T18:22:14.474Z,4.40
2022-12-28T18:24:41.112Z,4.40
2022-12-28T18:27:07.818Z,4.40
2022-12-28T18:29:34.480Z,4.30
2022-12-28T18:32:01.169Z,4.20
2022-12-28T18:34:27.785Z,4.40
2022-12-28T18:36:54.544Z,4.20
2022-12-28T18:39:21.249Z,4.40
2022-12-28T18:41:48.093Z,4.40
2022-12-28T18:44:14.749Z,4.20
2022-12-28T18:46:41.481Z,4.30
2022-12-28T18:49:08.195Z,4.10
2022-12-28T18:51:34.881Z,4.10
2022-12-28T18:54:01.740Z,3.80
2022-12-28T18:56:28.470Z,3.70
2022-12-28T18:58:55.198Z,3.80
2022-12-28T19:01:56.023Z,3.60
2022-12-28T19:04:08.641Z,3.50
2022-12-28T19:06:35.556Z,3.60
2022-12-28T19:09:02.369Z,3.30
2022-12-28T19:11:29.143Z,3.60
2022-12-28T19:13:55.873Z,3.70
2022-12-28T19:16:30.267Z,3.90
2022-12-28T19:18:57.646Z,3.70
2022-12-28T19:21:24.560Z,3.60
2022-12-28T19:23:59.118Z,3.60
2022-12-28T19:26:25.873Z,3.80
2022-12-28T19:28:52.604Z,3.80
2022-12-28T19:31:19.376Z,3.90
2022-12-28T19:33:46.114Z,4.00
2022-12-28T19:36:12.918Z,3.90
2022-12-28T19:38:39.850Z,3.90
2022-12-28T19:41:08.265Z,3.90
2022-12-28T19:43:34.920Z,3.60
2022-12-28T19:46:01.720Z,3.60
2022-12-28T19:48:28.580Z,3.70
2022-12-28T19:50:55.886Z,3.50
2022-12-28T19:53:22.669Z,3.70
2022-12-28T19:55:51.830Z,3.50
2022-12-28T19:58:18.877Z,3.50
2022-12-28T20:00:48.137Z,3.30
2022-12-28T20:03:15.187Z,2.60
2022-12-28T20:05:42.427Z,3.00
2022-12-28T20:08:11.937Z,3.00
2022-12-28T20:10:48.882Z,3.10
2022-12-28T20:13:22.878Z,3.40
2022-12-28T20:15:49.671Z,3.20
2022-12-28T20:18:20.731Z,3.30
2022-12-28T20:21:17.985Z,2.90
2022-12-28T20:23:35.347Z,3.00
2022-12-28T20:26:02.086Z,3.10
2022-12-28T20:28:38.326Z,3.30
2022-12-28T20:31:05.144Z,3.40
2022-12-28T20:33:32.546Z,3.40
2022-12-28T20:35:59.435Z,3.40
2022-12-28T20:38:26.218Z,3.30
2022-12-28T20:40:53.087Z,3.50
2022-12-28T20:43:19.826Z,3.20
2022-12-28T20:45:54.088Z,3.30
2022-12-28T20:48:22.780Z,3.20
2022-12-28T20:50:49.413Z,3.20
2022-12-28T20:53:16.264Z,3.20
2022-12-28T20:55:43.004Z,2.90
2022-12-28T20:58:09.780Z,2.90
2022-12-28T21:00:36.592Z,2.80
2022-12-28T21:03:03.310Z,3.00
2022-12-28T21:05:29.993Z,2.90
2022-12-28T21:07:56.661Z,3.20
2022-12-28T21:10:23.336Z,3.30
2022-12-28T21:12:49.972Z,3.40
2022-12-28T21:15:16.608Z,3.20
2022-12-28T21:17:43.219Z,2.80
2022-12-28T21:20:09.849Z,2.50
2022-12-28T21:22:36.568Z,2.70
2022-12-28T21:25:03.201Z,2.10
2022-12-28T21:27:29.883Z,2.50
2022-12-28T21:29:56.520Z,2.70
2022-12-28T21:32:23.217Z,2.80
2022-12-28T21:34:49.960Z,2.90
2022-12-28T21:37:16.635Z,2.90
2022-12-28T21:39:43.328Z,2.50
2022-12-28T21:42:09.995Z,2.70
2022-12-28T21:44:37.159Z,2.80
2022-12-28T21:47:03.827Z,3.00
2022-12-28T21:49:30.550Z,3.10
2022-12-28T21:51:57.277Z,2.80
2022-12-28T21:54:23.914Z,2.90
2022-12-28T21:56:50.601Z,2.90
2022-12-28T21:59:17.324Z,2.90
2022-12-28T22:01:44.354Z,3.00
2022-12-28T22:04:11.071Z,3.00
2022-12-28T22:06:37.716Z,2.80
2022-12-28T22:09:04.364Z,2.40
2022-12-28T22:11:31.050Z,2.40
2022-12-28T22:13:57.779Z,2.30
2022-12-28T22:16:24.513Z,2.40
2022-12-28T22:19:01.997Z,2.50
2022-12-28T22:21:29.544Z,2.70
2022-12-28T22:23:56.200Z,2.50
2022-12-28T22:26:22.832Z,2.70
2022-12-28T22:28:49.562Z,2.50
2022-12-28T22:31:16.230Z,2.60
2022-12-28T22:33:42.889Z,2.50
2022-12-28T22:36:09.648Z,2.50
2022-12-28T22:38:36.329Z,2.60
2022-12-28T22:41:02.976Z,2.60
2022-12-28T22:43:29.651Z,2.40
2022-12-28T22:45:56.377Z,2.60
2022-12-28T22:48:23.011Z,2.40
2022-12-28T22:50:49.668Z,2.20
2022-12-28T22:53:16.497Z,2.40
2022-12-28T22:55:43.126Z,2.50
2022-12-28T22:58:09.788Z,2.60
2022-12-28T23:00:36.515Z,2.60
2022-12-28T23:03:03.207Z,2.80
2022-12-28T23:05:29.899Z,2.80
2022-12-28T23:07:56.575Z,2.30
2022-12-28T23:10:23.207Z,2.10
2022-12-28T23:12:49.868Z,2.40
2022-12-28T23:15:16.561Z,2.50
2022-12-28T23:17:43.295Z,2.70
2022-12-28T23:20:09.985Z,2.50
2022-12-28T23:22:36.699Z,2.20
2022-12-28T23:25:03.315Z,2.40
2022-12-28T23:27:30.039Z,2.60
2022-12-28T23:29:56.769Z,2.30
2022-12-28T23:32:23.437Z,2.00
2022-12-28T23:34:50.137Z,2.20
2022-12-28T23:37:16.809Z,2.50
2022-12-28T23:39:43.507Z,2.30
2022-12-28T23:42:10.174Z,1.90
2022-12-28T23:44:36.826Z,2.00
2022-12-28T23:47:03.588Z,2.20
2022-12-28T23:49:30.248Z,2.20
2022-12-28T23:51:56.935Z,2.40
2022-12-28T23:54:23.639Z,2.40
2022-12-28T23:56:50.257Z,2.30
2022-12-28T23:59:16.938Z,2.00
